Bridgeville, PA (15017)

8:27 PM EST on December 27, 2014 (GMT -0500)
Olde Orchard South Fayette Bridgeville | Change Station
CLOSE
Current Station
Personal Weather Station
Location: Bridgeville, PA
Elevation: 1040 ft
Nearby Weather Stations

Elev 1040 ft 40.34 °N, 80.12 °W | Updated 9 seconds ago

Overcast
Overcast
48.0 °F
Feels Like 48 °F
N
0.0
Wind Variable Wind from WSW
Gusts 0.0 mph

Today
High -- | Low -- °F
--% Chance of Precip.
Yesterday
High -- | Low -- °F
Precip. -- in
7:42 AM 5:00 PM
Waxing Crescent, 42% visible
Pressure 30.09 in
Visibility 10.0 miles
Clouds Overcast 3200 ft
Windchill 48 °F
Dew Point 32 °F
Humidity 53%
Rainfall 0.00 in
Snow Depth Not available.
UV 0 out of 12
Pollen .10 out of 12
Air Quality Not available.
Flu Activity Not available.
METAR KAGC 280053Z 19006KT 10SM OVC032 12/M07 A3006 RMK AO2 SLP190 T01171072

More Conditions Fewer Conditions

Pressure 30.09 in
Visibility 10.0 miles
Clouds Overcast 3200 ft
Windchill 48 °F
Dew Point 32 °F
Humidity 53%
Rainfall 0.00 in
Snow Depth Not available.
UV 0 out of 12
Pollen .10 out of 12
Air Quality Not available.
Flu Activity Not available.
METAR KAGC 280053Z 19006KT 10SM OVC032 12/M07 A3006 RMK AO2 SLP190 T01171072

More Conditions Fewer Conditions

10-Day Weather Forecast

Almanac

Astronomy

Dec. 27, 2014 Rise Set
Actual Time
Civil Twilight
Nautical Twilight
Astronomical Twilight
Moon
Length of Visible Light
Length of Day
Tomorrow will be .
, % of the Moon is Illuminated

Today's Extremes

State Highs State Lows

Community

WunderPhotos

Upload Photos

1,781,120 photos uploaded!

WunderBlogs® & News

Nearby

Air Quality

  Air Quality AQ Index Pollutant
Not available.

Snow Depth

Station Depth Elevation

Earthquake Activity

City Distance Mag. Time & Date
Minimum magnitude displayed is 2.5.

Coastal Water Temperatures

Place Temperature

Nearby Weather Stations